Time;durP1;ratioP1;P1;durP2;ratioP2;P2;SDS_P1;SDS_P2;PMS_P1;PMS_P2;Temp;Humidity;BMP_temperature;BMP_pressure;BME280_temperature;BME280_humidity;BME280_pressure;Samples;Min_cycle;Max_cycle;Signal;HPM_P1;HPM_P2
2022/06/25 00:00:55;;;;;;;;;7.25;2.50;;;;;19.77;100.00;100618.91;5063482;28;45380;-86
2022/06/25 00:03:21;;;;;;;;;3.00;3.00;;;;;19.77;100.00;100609.00;5060153;28;44861;-86
2022/06/25 00:05:46;;;;;;;;;3.25;2.00;;;;;19.77;100.00;100610.81;5048393;28;47051;-86
2022/06/25 00:08:12;;;;;;;;;5.50;2.00;;;;;19.76;100.00;100604.59;5047256;28;44731;-86
2022/06/25 00:10:37;;;;;;;;;5.00;2.00;;;;;19.78;100.00;100601.75;5049418;28;44778;-87
2022/06/25 00:13:03;;;;;;;;;2.00;2.00;;;;;19.79;100.00;100605.28;5044189;28;45027;-86
2022/06/25 00:15:29;;;;;;;;;2.50;2.25;;;;;19.76;100.00;100604.59;5037634;28;45247;-86
2022/06/25 00:17:54;;;;;;;;;2.00;2.00;;;;;19.75;100.00;100610.16;5044107;28;44688;-87
2022/06/25 00:20:20;;;;;;;;;2.25;2.25;;;;;19.72;100.00;100605.09;5035953;27;44615;-86
2022/06/25 00:22:45;;;;;;;;;2.75;2.75;;;;;19.67;100.00;100596.66;5040019;27;44830;-86
2022/06/25 00:25:11;;;;;;;;;1.00;1.00;;;;;19.65;100.00;100607.59;5039709;27;46568;-87
2022/06/25 00:27:36;;;;;;;;;4.00;4.00;;;;;19.61;100.00;100600.84;5036613;27;44809;-87
2022/06/25 00:30:04;;;;;;;;;3.25;3.25;;;;;19.57;100.00;100604.00;5036011;28;45256;-87
2022/06/25 00:32:29;;;;;;;;;2.20;2.20;;;;;19.54;100.00;100599.81;5035324;28;45363;-87
2022/06/25 00:34:56;;;;;;;;;3.00;3.00;;;;;19.49;100.00;100604.84;5033382;28;46955;-87
2022/06/25 00:37:22;;;;;;;;;3.00;1.20;;;;;19.45;100.00;100606.19;5035950;27;44777;-86
2022/06/25 00:39:47;;;;;;;;;4.75;4.75;;;;;19.42;100.00;100610.03;5037653;27;44810;-87
2022/06/25 00:42:13;;;;;;;;;2.75;2.75;;;;;19.42;100.00;100603.78;5037767;28;44753;-85
2022/06/25 00:44:39;;;;;;;;;2.20;2.20;;;;;19.37;100.00;100598.06;5044563;28;45182;-88
2022/06/25 00:47:09;;;;;;;;;5.75;1.50;;;;;19.28;100.00;100594.47;5041446;28;44658;-86
2022/06/25 00:49:35;;;;;;;;;5.20;3.80;;;;;19.27;100.00;100607.09;5038083;28;45467;-86
2022/06/25 00:52:04;;;;;;;;;2.25;1.75;;;;;19.21;100.00;100620.41;5044599;28;44916;-87
2022/06/25 00:54:35;;;;;;;;;5.00;4.20;;;;;19.20;100.00;100618.72;5042380;28;45319;-87
2022/06/25 00:57:04;;;;;;;;;3.00;3.00;;;;;19.18;100.00;100615.31;5042243;28;44690;-87
2022/06/25 00:59:41;;;;;;;;;3.20;3.20;;;;;19.19;100.00;100617.00;5047871;28;44743;-85
2022/06/25 01:02:07;;;;;;;;;3.20;3.20;;;;;19.19;100.00;100617.84;5045899;28;44823;-86
2022/06/25 01:04:35;;;;;;;;;4.80;4.80;;;;;19.19;100.00;100620.53;5059430;28;45251;-87
2022/06/25 01:07:01;;;;;;;;;3.80;3.00;;;;;19.18;100.00;100618.00;5061964;28;44677;-86
2022/06/25 01:09:26;;;;;;;;;6.50;4.50;;;;;19.16;100.00;100620.88;5047745;28;45389;-87
2022/06/25 01:11:51;;;;;;;;;6.50;3.75;;;;;19.16;100.00;100620.03;5038777;28;44823;-85
2022/06/25 01:14:17;;;;;;;;;0.00;0.00;;;;;19.16;100.00;100615.50;5036132;28;47369;-84
2022/06/25 01:16:42;;;;;;;;;2.00;2.00;;;;;19.15;100.00;100610.28;5035021;28;45436;-83
2022/06/25 01:19:10;;;;;;;;;5.75;3.00;;;;;19.14;100.00;100612.09;5036613;28;45418;-83
2022/06/25 01:21:36;;;;;;;;;2.80;2.80;;;;;19.13;100.00;100617.66;5037294;28;45477;-83
2022/06/25 01:24:02;;;;;;;;;1.60;1.20;;;;;19.12;100.00;100607.88;5037055;28;45519;-81
2022/06/25 01:26:28;;;;;;;;;4.20;3.20;;;;;19.12;100.00;100615.97;5037195;28;44830;-83
2022/06/25 01:28:53;;;;;;;;;3.50;3.00;;;;;19.12;100.00;100622.19;5035388;28;44862;-83
2022/06/25 01:31:19;;;;;;;;;4.25;2.50;;;;;19.12;100.00;100627.59;5035091;28;45376;-82
2022/06/25 01:33:44;;;;;;;;;2.75;2.25;;;;;19.11;100.00;100623.22;5039707;28;46806;-82
2022/06/25 01:36:10;;;;;;;;;3.25;3.25;;;;;19.12;100.00;100624.06;5037679;28;45581;-83
2022/06/25 01:38:35;;;;;;;;;5.25;2.50;;;;;19.13;100.00;100618.50;5030461;28;44842;-82
2022/06/25 01:41:00;;;;;;;;;3.75;1.00;;;;;19.15;100.00;100624.59;5033886;28;45566;-83
2022/06/25 01:43:26;;;;;;;;;4.75;2.75;;;;;19.15;100.00;100624.59;5035397;28;45329;-83
2022/06/25 01:45:51;;;;;;;;;2.00;2.00;;;;;19.15;100.00;100621.03;5035253;28;44814;-82
2022/06/25 01:48:17;;;;;;;;;2.50;2.50;;;;;19.15;100.00;100616.50;5035106;28;44844;-81
2022/06/25 01:50:43;;;;;;;;;3.00;2.00;;;;;19.13;100.00;100623.03;5035072;28;45352;-82
2022/06/25 01:53:08;;;;;;;;;3.00;3.00;;;;;19.13;100.00;100625.72;5035432;28;44998;-81
2022/06/25 01:55:34;;;;;;;;;3.00;3.00;;;;;19.10;100.00;100629.59;5034528;28;45311;-81
2022/06/25 01:58:00;;;;;;;;;3.25;3.25;;;;;19.12;100.00;100634.81;5034204;28;44827;-83
2022/06/25 02:00:28;;;;;;;;;2.25;2.25;;;;;19.13;100.00;100631.97;5034869;28;45380;-82
2022/06/25 02:02:54;;;;;;;;;5.60;2.80;;;;;19.10;100.00;100634.13;5035525;28;45495;-83
2022/06/25 02:06:06;;;;;;;;;2.20;1.00;;;;;19.13;100.00;100625.72;5016859;28;45309;-82
2022/06/25 02:08:09;;;;;;;;;1.40;1.20;;;;;19.12;100.00;100635.66;5036668;28;45493;-81
2022/06/25 02:10:34;;;;;;;;;3.60;2.80;;;;;19.13;100.00;100644.59;5036882;28;45432;-82
2022/06/25 02:13:00;;;;;;;;;3.00;3.00;;;;;19.10;100.00;100637.69;5035254;28;45332;-81
2022/06/25 02:15:25;;;;;;;;;2.00;2.00;;;;;19.14;100.00;100636.34;5035012;28;45533;-82
2022/06/25 02:17:50;;;;;;;;;5.50;3.00;;;;;19.02;100.00;100644.88;5034715;28;45306;-83
2022/06/25 02:20:16;;;;;;;;;2.00;2.00;;;;;19.02;100.00;100644.88;5033664;28;45187;-82
2022/06/25 02:22:42;;;;;;;;;3.25;2.00;;;;;19.02;100.00;100639.47;5034630;28;45296;-82
2022/06/25 02:25:07;;;;;;;;;2.75;2.25;;;;;19.06;100.00;100643.56;5034764;28;45277;-81
2022/06/25 02:27:34;;;;;;;;;2.00;2.00;;;;;19.07;100.00;100637.16;5034841;28;45364;-82
2022/06/25 02:30:00;;;;;;;;;3.20;1.20;;;;;19.09;100.00;100635.97;5034256;28;45421;-82
2022/06/25 02:32:25;;;;;;;;;3.50;3.00;;;;;19.05;100.00;100631.94;5034168;28;45485;-81
2022/06/25 02:34:50;;;;;;;;;1.00;1.00;;;;;19.02;100.00;100624.16;5034381;28;45262;-82
2022/06/25 02:37:16;;;;;;;;;1.75;1.25;;;;;19.10;100.00;100620.66;5031430;28;44888;-82
2022/06/25 02:39:41;;;;;;;;;1.00;1.00;;;;;19.13;100.00;100617.66;5024002;28;44859;-82
2022/06/25 02:42:07;;;;;;;;;2.00;1.00;;;;;19.12;100.00;100622.19;5039742;28;45190;-83
2022/06/25 02:44:32;;;;;;;;;1.50;1.50;;;;;19.11;100.00;100625.91;5039402;28;45388;-82
2022/06/25 02:46:57;;;;;;;;;2.00;2.00;;;;;19.02;100.00;100623.31;5034213;28;44843;-82
2022/06/25 02:49:23;;;;;;;;;3.00;1.00;;;;;18.92;100.00;100644.97;5034146;28;45344;-84
2022/06/25 02:51:48;;;;;;;;;2.00;0.75;;;;;18.92;100.00;100643.13;5034238;28;45347;-83
2022/06/25 02:54:13;;;;;;;;;3.25;1.00;;;;;18.91;100.00;100651.38;5033093;28;45336;-82
2022/06/25 02:59:23;;;;;;;;;3.60;1.40;;;;;18.56;100.00;100657.63;5028888;28;45412;-83
2022/06/25 03:01:49;;;;;;;;;1.25;1.25;;;;;18.64;100.00;100660.41;5013922;28;45424;-81
2022/06/25 03:04:15;;;;;;;;;2.80;2.80;;;;;18.62;100.00;100657.88;5029093;28;45460;-87
2022/06/25 03:06:40;;;;;;;;;2.00;2.00;;;;;18.52;100.00;100664.31;5034810;28;44770;-87
2022/06/25 03:09:05;;;;;;;;;2.25;1.50;;;;;18.22;100.00;100686.09;5035070;28;44913;-86
2022/06/25 03:11:31;;;;;;;;;3.25;1.75;;;;;17.98;100.00;100686.69;5035228;28;45468;-86
2022/06/25 03:13:56;;;;;;;;;1.75;1.75;;;;;17.68;100.00;100695.91;5039115;28;45380;-85
2022/06/25 03:16:22;;;;;;;;;1.00;1.00;;;;;17.60;100.00;100700.31;5044363;28;44738;-87
2022/06/25 03:18:49;;;;;;;;;1.00;1.00;;;;;17.52;100.00;100705.59;5042369;28;44924;-85
2022/06/25 03:21:14;;;;;;;;;0.00;0.00;;;;;17.23;100.00;100701.19;5037849;28;46180;-85
2022/06/25 03:23:39;;;;;;;;;0.25;0.25;;;;;16.93;100.00;100713.00;5040578;28;44770;-86
2022/06/25 03:26:05;;;;;;;;;0.50;0.00;;;;;16.88;100.00;100726.84;5031113;27;45553;-83
2022/06/25 03:28:30;;;;;;;;;0.00;0.00;;;;;16.82;100.00;100719.34;5014929;28;45383;-82
2022/06/25 03:30:55;;;;;;;;;0.00;0.00;;;;;16.82;100.00;100715.84;5029408;28;45334;-81
2022/06/25 03:33:21;;;;;;;;;0.00;0.00;;;;;16.77;100.00;100720.78;5034454;28;45493;-81
2022/06/25 03:35:46;;;;;;;;;0.00;0.00;;;;;16.80;100.00;100715.13;5033074;28;44889;-83
2022/06/25 03:38:11;;;;;;;;;0.25;0.25;;;;;16.86;100.00;100714.56;5034195;28;45425;-80
2022/06/25 03:40:37;;;;;;;;;0.00;0.00;;;;;16.91;100.00;100718.50;5033834;28;45451;-82
2022/06/25 03:43:03;;;;;;;;;0.00;0.00;;;;;16.95;100.00;100713.69;5033264;28;45539;-84
2022/06/25 03:45:28;;;;;;;;;0.00;0.00;;;;;17.02;100.00;100722.88;5033647;28;45491;-88
2022/06/25 03:47:54;;;;;;;;;2.00;0.50;;;;;17.04;100.00;100726.25;5036470;28;44877;-87
2022/06/25 03:50:20;;;;;;;;;0.00;0.00;;;;;17.15;100.00;100728.75;5043436;28;45319;-87
2022/06/25 03:52:47;;;;;;;;;2.00;1.00;;;;;17.22;100.00;100726.34;5043159;28;45249;-85
2022/06/25 03:55:13;;;;;;;;;2.40;0.80;;;;;17.29;100.00;100727.44;5036853;28;44776;-87
2022/06/25 03:57:40;;;;;;;;;2.00;0.00;;;;;17.37;100.00;100724.03;5036370;28;44822;-86
2022/06/25 04:00:07;;;;;;;;;1.40;0.40;;;;;17.46;100.00;100724.00;5041635;28;46307;-86
2022/06/25 04:02:33;;;;;;;;;0.00;0.00;;;;;17.55;100.00;100719.59;5046311;28;45289;-85
2022/06/25 04:04:59;;;;;;;;;1.00;1.00;;;;;17.63;100.00;100719.69;5036401;28;45195;-88
2022/06/25 04:07:24;;;;;;;;;0.75;0.75;;;;;17.70;100.00;100726.16;5035540;28;45315;-86
2022/06/25 04:09:50;;;;;;;;;0.50;0.50;;;;;17.81;100.00;100718.94;5020019;28;45440;-85
2022/06/25 04:12:15;;;;;;;;;4.00;1.50;;;;;17.91;100.00;100720.56;5015048;28;44799;-86
2022/06/25 04:14:41;;;;;;;;;1.00;1.00;;;;;17.95;100.00;100711.19;5014810;28;45366;-85
2022/06/25 04:17:06;;;;;;;;;3.00;2.00;;;;;18.05;100.00;100716.50;5019136;28;45224;-86
2022/06/25 04:19:39;;;;;;;;;1.00;1.00;;;;;18.09;100.00;100717.06;5023451;27;46656;-88
2022/06/25 04:22:11;;;;;;;;;1.00;1.00;;;;;18.13;100.00;100708.53;5026492;28;44858;-85
2022/06/25 04:24:38;;;;;;;;;1.00;1.00;;;;;18.22;100.00;100707.59;5024387;28;45445;-86
2022/06/25 04:27:04;;;;;;;;;2.20;1.00;;;;;18.24;100.00;100707.47;5027883;28;44826;-86
2022/06/25 04:29:30;;;;;;;;;1.00;1.00;;;;;18.31;100.00;100716.59;5022955;28;45297;-86
2022/06/25 04:31:56;;;;;;;;;1.00;1.00;;;;;18.34;100.00;100710.09;5026021;28;44752;-85
2022/06/25 04:34:22;;;;;;;;;3.00;1.00;;;;;18.43;100.00;100717.22;5024610;28;44747;-86
2022/06/25 04:36:48;;;;;;;;;1.00;1.00;;;;;18.41;100.00;100721.91;5043980;28;44808;-84
2022/06/25 04:39:14;;;;;;;;;2.00;2.00;;;;;18.43;100.00;100725.31;5042645;27;46560;-84
2022/06/25 04:41:39;;;;;;;;;1.00;1.00;;;;;18.49;100.00;100722.84;5041161;28;44837;-85
2022/06/25 04:44:05;;;;;;;;;1.00;1.00;;;;;18.56;100.00;100719.50;5038081;28;45177;-84
2022/06/25 04:46:30;;;;;;;;;1.25;1.25;;;;;18.62;100.00;100714.38;5048962;28;44756;-85
2022/06/25 04:48:57;;;;;;;;;1.25;1.00;;;;;18.65;100.00;100715.91;5051147;27;45588;-84
2022/06/25 04:51:22;;;;;;;;;2.20;1.20;;;;;18.53;100.00;100709.94;5042454;28;44838;-86
2022/06/25 04:53:56;;;;;;;;;1.00;1.00;;;;;18.57;100.00;100707.78;5036501;28;44737;-85
2022/06/25 04:56:28;;;;;;;;;1.00;1.00;;;;;18.61;100.00;100707.28;5035884;28;45616;-84
2022/06/25 04:58:54;;;;;;;;;1.60;1.00;;;;;18.50;100.00;100720.97;5038317;28;45073;-85
2022/06/25 05:01:20;;;;;;;;;1.00;1.00;;;;;18.53;100.00;100726.06;5044737;28;44782;-86
2022/06/25 05:03:46;;;;;;;;;2.00;1.00;;;;;18.57;100.00;100729.31;5040756;28;45307;-85
2022/06/25 05:06:12;;;;;;;;;0.00;0.00;;;;;18.70;100.00;100722.53;5034525;28;44809;-87
2022/06/25 05:08:38;;;;;;;;;1.00;1.00;;;;;18.73;100.00;100719.53;5016672;28;45457;-86
2022/06/25 05:11:03;;;;;;;;;0.00;0.00;;;;;18.73;100.00;100729.47;5014185;28;44677;-86
2022/06/25 05:13:29;;;;;;;;;1.00;0.00;;;;;18.81;100.00;100728.66;5014227;28;45165;-86
2022/06/25 05:15:55;;;;;;;;;0.00;0.00;;;;;18.94;100.00;100745.25;5014381;28;45287;-86
2022/06/25 05:18:20;;;;;;;;;2.25;1.00;;;;;19.00;100.00;100741.94;5017346;28;45225;-86
2022/06/25 05:20:46;;;;;;;;;1.50;0.00;;;;;19.05;100.00;100742.34;5021474;28;44798;-86
2022/06/25 05:23:13;;;;;;;;;1.25;1.00;;;;;19.02;100.00;100749.88;5016013;28;44871;-85
2022/06/25 05:25:39;;;;;;;;;2.40;1.80;;;;;18.98;100.00;100752.03;5016733;28;45397;-85
2022/06/25 05:28:05;;;;;;;;;1.00;1.00;;;;;19.09;100.00;100745.53;5016087;27;46904;-84
2022/06/25 05:30:31;;;;;;;;;2.75;1.00;;;;;19.21;100.00;100736.22;5018789;28;45458;-86
2022/06/25 05:32:56;;;;;;;;;1.00;1.00;;;;;19.19;100.00;100736.34;5020821;28;45333;-85
2022/06/25 05:35:22;;;;;;;;;0.25;0.25;;;;;19.31;100.00;100738.78;5019491;27;45497;-84
2022/06/25 05:37:48;;;;;;;;;1.25;1.00;;;;;19.47;100.00;100749.66;5023860;28;45046;-86
2022/06/25 05:40:13;;;;;;;;;2.00;1.00;;;;;19.41;100.00;100747.59;5035166;28;45237;-85
2022/06/25 05:42:40;;;;;;;;;0.75;0.75;;;;;19.30;100.00;100751.41;5038497;28;44686;-89
2022/06/25 05:45:06;;;;;;;;;1.60;1.00;;;;;19.34;100.00;100741.16;5040803;28;44781;-88
2022/06/25 05:47:31;;;;;;;;;0.40;0.40;;;;;19.24;100.00;100739.44;5041836;28;45302;-88
2022/06/25 05:49:57;;;;;;;;;2.00;0.75;;;;;19.11;100.00;100743.56;5041249;28;44678;-89
2022/06/25 05:52:22;;;;;;;;;1.00;1.00;;;;;19.03;100.00;100748.88;5046905;28;44801;-89
2022/06/25 05:54:48;;;;;;;;;2.75;1.00;;;;;19.05;100.00;100744.16;5043092;28;44832;-89
2022/06/25 05:57:13;;;;;;;;;3.50;1.00;;;;;19.23;100.00;100743.09;5042016;28;45040;-89
2022/06/25 05:59:39;;;;;;;;;1.00;1.00;;;;;19.44;100.00;100734.66;5045306;28;45344;-87
2022/06/25 06:02:04;;;;;;;;;1.00;1.00;;;;;19.25;100.00;100727.66;5041354;28;44809;-89
2022/06/25 06:04:29;;;;;;;;;0.50;0.50;;;;;19.36;100.00;100728.38;5036609;28;44860;-83
2022/06/25 06:06:55;;;;;;;;;1.00;1.00;;;;;19.35;100.00;100745.56;5033680;28;45426;-83
2022/06/25 06:09:20;;;;;;;;;3.00;1.00;;;;;19.51;100.00;100748.34;5028138;28;45344;-82
2022/06/25 06:11:46;;;;;;;;;2.00;0.00;;;;;19.60;100.00;100742.00;5042476;28;45140;-85
2022/06/25 06:14:12;;;;;;;;;0.75;0.00;;;;;19.72;100.00;100740.69;5038568;28;44909;-84
2022/06/25 06:16:38;;;;;;;;;0.40;0.40;;;;;19.67;100.00;100748.44;5036190;28;45393;-89
2022/06/25 06:19:03;;;;;;;;;1.75;1.75;;;;;19.69;100.00;100743.75;5040017;28;44810;-88
2022/06/25 06:21:29;;;;;;;;;1.00;1.00;;;;;19.60;100.00;100738.47;5038362;28;45679;-88
2022/06/25 06:23:54;;;;;;;;;1.50;1.50;;;;;19.72;100.00;100743.41;5041348;28;44730;-87
2022/06/25 06:26:20;;;;;;;;;2.00;1.00;;;;;19.83;100.00;100752.22;5041780;28;45160;-88
2022/06/25 06:28:45;;;;;;;;;0.00;0.00;;;;;19.85;100.00;100742.13;5044085;28;44885;-89
2022/06/25 06:31:11;;;;;;;;;1.00;1.00;;;;;20.03;100.00;100750.94;5048545;28;45500;-87
2022/06/25 06:33:36;;;;;;;;;0.75;0.75;;;;;20.03;100.00;100751.78;5048747;28;44949;-88
2022/06/25 06:36:02;;;;;;;;;5.00;4.00;;;;;19.86;100.00;100741.09;5047408;28;45092;-87
2022/06/25 06:38:28;;;;;;;;;0.25;0.00;;;;;19.75;100.00;100743.09;5047436;28;44827;-87
2022/06/25 06:40:53;;;;;;;;;2.00;2.00;;;;;19.91;100.00;100749.53;5042063;27;44796;-88
2022/06/25 06:43:19;;;;;;;;;4.00;3.00;;;;;20.01;100.00;100753.78;5043698;27;44866;-88
2022/06/25 06:45:46;;;;;;;;;3.00;2.00;;;;;20.12;100.00;100749.97;5043055;27;45183;-88
2022/06/25 06:48:11;;;;;;;;;1.00;1.00;;;;;20.04;100.00;100747.25;5043601;27;44787;-88
2022/06/25 06:50:37;;;;;;;;;1.00;1.00;;;;;20.12;100.00;100746.44;5045541;27;44797;-89
2022/06/25 06:53:02;;;;;;;;;1.00;1.00;;;;;19.97;100.00;100747.06;5054217;28;44682;-87
2022/06/25 06:55:28;;;;;;;;;2.00;2.00;;;;;19.86;100.00;100746.50;5050200;27;45047;-84
2022/06/25 06:57:53;;;;;;;;;3.00;2.00;;;;;19.56;100.00;100748.69;5053884;28;44717;-85
2022/06/25 07:00:18;;;;;;;;;3.00;2.75;;;;;19.30;100.00;100761.34;5072631;27;44706;-82
2022/06/25 07:02:44;;;;;;;;;1.00;1.00;;;;;19.36;100.00;100749.94;5050044;28;44861;-84
2022/06/25 07:05:09;;;;;;;;;2.00;1.00;;;;;19.40;100.00;100754.00;5043867;28;45028;-85
2022/06/25 07:07:35;;;;;;;;;1.00;1.00;;;;;19.29;100.00;100760.47;5045191;28;44745;-88
2022/06/25 07:10:00;;;;;;;;;2.00;2.00;;;;;19.45;100.00;100755.22;5033023;28;44986;-88
2022/06/25 07:12:27;;;;;;;;;1.25;1.25;;;;;19.68;100.00;100762.78;5029115;28;44783;-89
2022/06/25 07:14:52;;;;;;;;;0.60;0.60;;;;;19.71;100.00;100765.97;5028106;28;45164;-88
2022/06/25 07:17:17;;;;;;;;;1.75;1.75;;;;;19.79;100.00;100761.66;5032835;28;44748;-87
2022/06/25 07:19:43;;;;;;;;;3.25;2.00;;;;;19.62;100.00;100768.78;5037574;28;44807;-88
2022/06/25 07:22:08;;;;;;;;;2.00;2.00;;;;;19.87;100.00;100773.31;5035207;27;44800;-89
2022/06/25 07:24:34;;;;;;;;;1.00;1.00;;;;;20.01;100.00;100767.28;5034276;28;45191;-87
2022/06/25 07:26:59;;;;;;;;;3.25;1.00;;;;;19.95;100.00;100761.69;5033679;28;45239;-88
2022/06/25 07:29:24;;;;;;;;;3.75;2.25;;;;;19.72;100.00;100761.44;5033840;28;44794;-87
2022/06/25 07:31:51;;;;;;;;;4.00;3.75;;;;;19.88;100.00;100753.44;5033879;28;44799;-87
2022/06/25 07:34:17;;;;;;;;;2.40;1.40;;;;;20.06;100.00;100758.69;5035880;28;45139;-87
2022/06/25 07:36:42;;;;;;;;;2.00;1.00;;;;;20.33;100.00;100765.69;5033236;28;44743;-86
2022/06/25 07:39:08;;;;;;;;;1.75;1.75;;;;;20.45;100.00;100768.91;5023501;28;45571;-84
2022/06/25 07:41:34;;;;;;;;;1.50;1.00;;;;;20.52;100.00;100770.81;5015175;28;45679;-82
2022/06/25 07:43:59;;;;;;;;;1.50;1.50;;;;;20.58;100.00;100763.06;5029752;28;45431;-82
2022/06/25 07:46:24;;;;;;;;;1.50;0.25;;;;;20.47;100.00;100759.69;5037898;27;44771;-83
2022/06/25 07:48:50;;;;;;;;;0.00;0.00;;;;;20.56;100.00;100767.78;5017463;28;45227;-82
2022/06/25 07:53:59;;;;;;;;;2.00;1.00;;;;;20.63;100.00;100761.53;5020459;28;44946;-82
2022/06/25 07:56:25;;;;;;;;;1.00;1.00;;;;;20.86;100.00;100779.78;5020511;28;44712;-83
2022/06/25 07:58:50;;;;;;;;;2.00;2.00;;;;;21.00;100.00;100774.56;5018471;28;44802;-80
2022/06/25 08:01:16;;;;;;;;;1.00;1.00;;;;;21.10;100.00;100762.75;5020395;28;44922;-81
2022/06/25 08:03:41;;;;;;;;;0.00;0.00;;;;;21.05;100.00;100766.78;5028951;28;45168;-83
2022/06/25 08:06:07;;;;;;;;;1.00;1.00;;;;;21.10;100.00;100773.53;5040309;28;44728;-83
2022/06/25 08:08:33;;;;;;;;;1.00;1.00;;;;;21.28;100.00;100776.91;5037623;28;45340;-82
2022/06/25 08:10:58;;;;;;;;;2.00;1.25;;;;;21.43;100.00;100774.38;5034986;27;44934;-83
2022/06/25 08:13:24;;;;;;;;;0.25;0.25;;;;;21.54;100.00;100771.28;5038229;28;45105;-86
2022/06/25 08:15:50;;;;;;;;;1.00;1.00;;;;;21.66;100.00;100775.31;5036129;28;44880;-84
2022/06/25 08:18:16;;;;;;;;;3.00;2.00;;;;;21.89;100.00;100774.56;5035494;28;44740;-83
2022/06/25 08:20:41;;;;;;;;;1.00;1.00;;;;;21.73;100.00;100773.59;5034214;28;44945;-83
2022/06/25 08:23:07;;;;;;;;;1.25;1.00;;;;;21.68;100.00;100773.28;5034491;28;45302;-82
2022/06/25 08:25:32;;;;;;;;;2.00;2.00;;;;;21.69;100.00;100784.94;5034906;28;45324;-83
2022/06/25 08:27:57;;;;;;;;;2.00;1.25;;;;;21.63;100.00;100785.63;5044574;28;45340;-81
2022/06/25 08:30:26;;;;;;;;;1.25;0.00;;;;;21.22;100.00;100791.91;5047637;28;45295;-82
2022/06/25 08:32:53;;;;;;;;;1.00;1.00;;;;;21.08;100.00;100795.34;5042255;28;45132;-82
2022/06/25 08:35:18;;;;;;;;;2.60;1.00;;;;;20.96;100.00;100800.22;5034965;28;44861;-83
2022/06/25 08:37:45;;;;;;;;;3.00;2.00;;;;;21.08;100.00;100797.16;5035030;28;44810;-81
2022/06/25 08:40:12;;;;;;;;;1.20;1.20;;;;;20.69;100.00;100789.72;5034331;28;44929;-83
2022/06/25 08:42:37;;;;;;;;;0.80;0.00;;;;;20.71;100.00;100799.34;5035216;28;45407;-83
2022/06/25 08:45:03;;;;;;;;;3.75;2.00;;;;;20.71;100.00;100793.13;5035048;28;45356;-81
2022/06/25 08:47:29;;;;;;;;;0.40;0.00;;;;;20.81;100.00;100804.59;5034353;28;45433;-81
2022/06/25 08:49:55;;;;;;;;;2.25;2.25;;;;;20.68;100.00;100810.47;5035572;28;44763;-88
2022/06/25 08:52:21;;;;;;;;;0.00;0.00;;;;;20.45;100.00;100815.66;5037253;28;45244;-87
2022/06/25 08:54:48;;;;;;;;;3.00;2.00;;;;;20.26;100.00;100811.38;5041212;28;44761;-85
2022/06/25 08:57:14;;;;;;;;;4.40;4.40;;;;;20.14;100.00;100815.38;5043956;28;44733;-88
2022/06/25 08:59:42;;;;;;;;;4.25;1.75;;;;;20.13;100.00;100813.69;5036347;28;44973;-86
2022/06/25 09:02:07;;;;;;;;;4.00;3.00;;;;;20.26;100.00;100814.09;5036658;28;45144;-87
2022/06/25 09:04:32;;;;;;;;;2.00;2.00;;;;;20.23;100.00;100818.94;5036859;28;45443;-82
2022/06/25 09:07:16;;;;;;;;;4.50;1.25;;;;;20.16;100.00;100816.06;5039255;28;45366;-82
2022/06/25 09:09:47;;;;;;;;;1.00;1.00;;;;;20.05;100.00;100810.13;5041608;28;44918;-82
2022/06/25 09:12:16;;;;;;;;;0.00;0.00;;;;;19.81;100.00;100813.53;5037462;28;45242;-83
2022/06/25 09:14:42;;;;;;;;;2.40;2.40;;;;;19.65;100.00;100811.59;5035508;28;45397;-82
2022/06/25 09:17:12;;;;;;;;;4.00;2.25;;;;;19.70;100.00;100803.88;5037738;28;44745;-82
2022/06/25 09:19:47;;;;;;;;;1.00;1.00;;;;;19.79;100.00;100810.16;5038963;28;44907;-82
2022/06/25 09:22:13;;;;;;;;;1.60;1.00;;;;;19.82;100.00;100810.66;5038449;28;45021;-81
2022/06/25 09:24:45;;;;;;;;;1.60;1.60;;;;;19.84;100.00;100805.13;5037819;28;44761;-82
2022/06/25 09:27:11;;;;;;;;;2.80;1.40;;;;;19.57;100.00;100787.25;5037500;28;45425;-82
2022/06/25 09:29:45;;;;;;;;;2.00;2.00;;;;;19.52;100.00;100793.13;5035927;28;44828;-83
2022/06/25 09:32:11;;;;;;;;;4.40;3.00;;;;;19.58;100.00;100791.66;5038263;28;45381;-83
2022/06/25 09:34:38;;;;;;;;;3.40;3.40;;;;;19.84;100.00;100794.34;5038406;28;45297;-82
2022/06/25 09:37:22;;;;;;;;;3.80;2.80;;;;;19.92;100.00;100799.75;5037666;28;44785;-81
2022/06/25 09:39:48;;;;;;;;;3.20;2.00;;;;;20.06;100.00;100792.91;5042017;28;45541;-81
2022/06/25 09:42:26;;;;;;;;;3.20;2.00;;;;;20.29;100.00;100794.00;5052763;28;45145;-81
2022/06/25 09:45:12;;;;;;;;;2.20;1.00;;;;;20.42;100.00;100797.09;5051129;28;44757;-81
2022/06/25 09:47:43;;;;;;;;;2.60;2.60;;;;;20.51;100.00;100795.28;5048295;28;44811;-81
2022/06/25 09:50:18;;;;;;;;;2.20;2.20;;;;;20.45;100.00;100795.91;5037247;28;45434;-81
2022/06/25 09:52:54;;;;;;;;;2.00;2.00;;;;;20.15;100.00;100797.34;5036205;28;45331;-83
2022/06/25 09:55:22;;;;;;;;;1.00;1.00;;;;;19.95;100.00;100799.44;5036978;28;45336;-83
2022/06/25 09:57:48;;;;;;;;;11.80;9.40;;;;;20.06;100.00;100803.69;5036370;28;44827;-82
2022/06/25 10:00:17;;;;;;;;;4.00;3.20;;;;;19.87;100.00;100810.19;5038730;28;45400;-82
2022/06/25 10:02:45;;;;;;;;;3.20;2.00;;;;;19.80;100.00;100803.78;5038562;28;45510;-82
2022/06/25 10:05:12;;;;;;;;;2.80;2.80;;;;;19.92;100.00;100814.13;5036241;28;45323;-82
2022/06/25 10:10:23;;;;;;;;;3.40;3.40;;;;;19.83;100.00;100801.59;5037071;28;44725;-83
2022/06/25 10:12:50;;;;;;;;;2.00;2.00;;;;;19.89;100.00;100794.72;5037189;28;45207;-82
2022/06/25 10:15:19;;;;;;;;;3.20;2.80;;;;;20.08;100.00;100794.47;5036882;28;45171;-82
2022/06/25 10:17:46;;;;;;;;;4.40;3.00;;;;;20.21;100.00;100792.16;5041612;28;44776;-82
2022/06/25 10:20:15;;;;;;;;;3.60;3.00;;;;;20.21;100.00;100797.53;5055691;28;44730;-85
2022/06/25 10:22:43;;;;;;;;;2.40;2.40;;;;;20.12;100.00;100797.69;5053819;28;45223;-86
2022/06/25 10:25:11;;;;;;;;;5.60;3.20;;;;;20.30;100.00;100795.69;5043478;28;44620;-88
2022/06/25 10:27:48;;;;;;;;;2.40;2.40;;;;;20.34;100.00;100786.25;5037937;28;45447;-88
2022/06/25 10:30:33;;;;;;;;;3.20;1.60;;;;;20.46;100.00;100782.25;5038942;28;44649;-86
2022/06/25 10:32:59;;;;;;;;;4.60;2.80;;;;;20.54;100.00;100784.97;5037825;28;46633;-85
2022/06/25 10:35:33;;;;;;;;;6.25;4.00;;;;;20.77;100.00;100790.59;5040450;28;44690;-87
2022/06/25 10:38:09;;;;;;;;;2.20;2.20;;;;;21.02;100.00;100785.19;5039564;28;45448;-87
2022/06/25 10:40:57;;;;;;;;;4.40;3.40;;;;;21.08;100.00;100787.22;5041078;28;45177;-86
2022/06/25 10:43:52;;;;;;;;;5.00;4.40;;;;;21.24;100.00;100789.06;5042255;28;45078;-82
2022/06/25 10:46:26;;;;;;;;;94.67;85.33;;;;;21.35;100.00;100785.19;5036368;28;45236;-83
2022/06/25 10:49:08;;;;;;;;;26.50;23.75;;;;;21.51;100.00;100796.78;5036103;28;45251;-83
2022/06/25 10:51:38;;;;;;;;;154.25;143.00;;;;;21.64;100.00;100790.03;5035965;28;44847;-81
2022/06/25 10:54:07;;;;;;;;;4.40;3.80;;;;;21.71;100.00;100781.06;5037554;28;45217;-82
2022/06/25 10:56:44;;;;;;;;;6.80;6.00;;;;;21.94;100.00;100791.94;5041178;28;45293;-82
2022/06/25 10:59:09;;;;;;;;;22.00;21.00;;;;;22.30;100.00;100781.50;5037091;28;45171;-82
2022/06/25 11:01:35;;;;;;;;;34.00;30.00;;;;;22.69;100.00;100793.25;5035460;28;45389;-83
2022/06/25 11:04:04;;;;;;;;;34.00;31.00;;;;;23.03;100.00;100799.09;5036487;28;45286;-82
2022/06/25 11:06:34;;;;;;;;;15.40;12.20;;;;;23.32;100.00;100781.22;5036293;28;44852;-83
2022/06/25 11:09:16;;;;;;;;;16.20;16.20;;;;;23.46;100.00;100772.28;5037398;28;44719;-81
2022/06/25 11:11:46;;;;;;;;;25.25;21.75;;;;;23.77;100.00;100785.66;5035587;28;44861;-80
2022/06/25 11:14:24;;;;;;;;;50.00;38.33;;;;;24.07;100.00;100782.91;5037714;28;45407;-85
2022/06/25 11:16:52;;;;;;;;;19.60;18.00;;;;;24.35;100.00;100788.47;5037793;28;44813;-82
2022/06/25 11:19:22;;;;;;;;;17.80;17.60;;;;;24.40;100.00;100788.78;5038738;28;45215;-82
2022/06/25 11:21:48;;;;;;;;;18.40;15.00;;;;;24.28;100.00;100788.41;5039221;28;45404;-83
2022/06/25 11:24:25;;;;;;;;;16.00;15.00;;;;;24.17;100.00;100780.75;5045141;28;45116;-87